sensor_id;sensor_type;location;lat;lon;timestamp;P1;P2;P0
55276;PMS5003;41136;51.478;-2.610;2022-12-11T11:16:57;33;28;
55276;PMS5003;41136;51.478;-2.610;2022-12-11T11:19:22;27;26;
55276;PMS5003;41136;51.478;-2.610;2022-12-11T11:21:48;31;27;
55276;PMS5003;41136;51.478;-2.610;2022-12-11T11:24:17;30;27;
55276;PMS5003;41136;51.478;-2.610;2022-12-11T11:26:38;25;24;
55276;PMS5003;41136;51.478;-2.610;2022-12-11T11:29:03;31;27;
55276;PMS5003;41136;51.478;-2.610;2022-12-11T11:31:30;26;25;
55276;PMS5003;41136;51.478;-2.610;2022-12-11T11:33:56;28;24;
55276;PMS5003;41136;51.478;-2.610;2022-12-11T11:36:22;23;22;
55276;PMS5003;41136;51.478;-2.610;2022-12-11T11:38:48;27;27;
55276;PMS5003;41136;51.478;-2.610;2022-12-11T11:41:14;29;27;
55276;PMS5003;41136;51.478;-2.610;2022-12-11T11:43:41;28;27;
55276;PMS5003;41136;51.478;-2.610;2022-12-11T11:46:05;31;27;
55276;PMS5003;41136;51.478;-2.610;2022-12-11T11:48:32;35;27;
55276;PMS5003;41136;51.478;-2.610;2022-12-11T11:50:54;32;30;
55276;PMS5003;41136;51.478;-2.610;2022-12-11T11:53:21;27;24;
55276;PMS5003;41136;51.478;-2.610;2022-12-11T11:55:48;32;28;
55276;PMS5003;41136;51.478;-2.610;2022-12-11T11:58:12;41;38;
55276;PMS5003;41136;51.478;-2.610;2022-12-11T12:00:36;39;39;
55276;PMS5003;41136;51.478;-2.610;2022-12-11T12:03:03;33;31;
55276;PMS5003;41136;51.478;-2.610;2022-12-11T12:05:30;34;31;
55276;PMS5003;41136;51.478;-2.610;2022-12-11T12:07:58;31;28;
55276;PMS5003;41136;51.478;-2.610;2022-12-11T12:10:20;26;24;
55276;PMS5003;41136;51.478;-2.610;2022-12-11T12:12:46;32;32;
55276;PMS5003;41136;51.478;-2.610;2022-12-11T12:15:14;32;30;
55276;PMS5003;41136;51.478;-2.610;2022-12-11T12:17:37;28;26;
55276;PMS5003;41136;51.478;-2.610;2022-12-11T12:20:02;28;27;
55276;PMS5003;41136;51.478;-2.610;2022-12-11T12:22:30;27;24;
55276;PMS5003;41136;51.478;-2.610;2022-12-11T12:24:54;23;21;
55276;PMS5003;41136;51.478;-2.610;2022-12-11T12:27:18;30;27;
55276;PMS5003;41136;51.478;-2.610;2022-12-11T12:29:43;27;25;
55276;PMS5003;41136;51.478;-2.610;2022-12-11T12:32:08;26;26;
55276;PMS5003;41136;51.478;-2.610;2022-12-11T12:34:37;28;24;
55276;PMS5003;41136;51.478;-2.610;2022-12-11T12:37:00;24;24;
55276;PMS5003;41136;51.478;-2.610;2022-12-11T12:39:26;27;27;
55276;PMS5003;41136;51.478;-2.610;2022-12-11T12:41:51;26;24;
55276;PMS5003;41136;51.478;-2.610;2022-12-11T12:44:16;23;20;
55276;PMS5003;41136;51.478;-2.610;2022-12-11T12:46:45;20;19;
55276;PMS5003;41136;51.478;-2.610;2022-12-11T12:49:06;25;22;
55276;PMS5003;41136;51.478;-2.610;2022-12-11T12:51:31;22;21;
55276;PMS5003;41136;51.478;-2.610;2022-12-11T12:53:58;24;21;
55276;PMS5003;41136;51.478;-2.610;2022-12-11T12:56:22;19;18;
55276;PMS5003;41136;51.478;-2.610;2022-12-11T12:58:48;21;19;
55276;PMS5003;41136;51.478;-2.610;2022-12-11T13:01:14;24;23;
55276;PMS5003;41136;51.478;-2.610;2022-12-11T13:06:05;27;23;
55276;PMS5003;41136;51.478;-2.610;2022-12-11T13:08:33;22;22;
55276;PMS5003;41136;51.478;-2.610;2022-12-11T13:10:58;34;29;
55276;PMS5003;41136;51.478;-2.610;2022-12-11T13:13:28;26;26;
55276;PMS5003;41136;51.478;-2.610;2022-12-11T13:15:46;28;25;
55276;PMS5003;41136;51.478;-2.610;2022-12-11T13:20:44;25;23;
55276;PMS5003;41136;51.478;-2.610;2022-12-11T13:25:29;23;21;
55276;PMS5003;41136;51.478;-2.610;2022-12-11T13:30:21;31;30;
55276;PMS5003;41136;51.478;-2.610;2022-12-11T13:32:48;30;28;
55276;PMS5003;41136;51.478;-2.610;2022-12-11T13:35:13;24;24;
55276;PMS5003;41136;51.478;-2.610;2022-12-11T13:37:37;30;30;
55276;PMS5003;41136;51.478;-2.610;2022-12-11T13:40:03;24;24;
55276;PMS5003;41136;51.478;-2.610;2022-12-11T13:42:30;25;24;
55276;PMS5003;41136;51.478;-2.610;2022-12-11T13:44:53;29;28;
55276;PMS5003;41136;51.478;-2.610;2022-12-11T13:47:19;25;25;
55276;PMS5003;41136;51.478;-2.610;2022-12-11T13:49:45;25;23;
55276;PMS5003;41136;51.478;-2.610;2022-12-11T13:52:14;26;24;
55276;PMS5003;41136;51.478;-2.610;2022-12-11T13:54:35;22;22;
55276;PMS5003;41136;51.478;-2.610;2022-12-11T13:57:02;28;25;
55276;PMS5003;41136;51.478;-2.610;2022-12-11T13:59:27;28;27;
55276;PMS5003;41136;51.478;-2.610;2022-12-11T14:01:53;25;25;
55276;PMS5003;41136;51.478;-2.610;2022-12-11T14:04:18;31;26;
55276;PMS5003;41136;51.478;-2.610;2022-12-11T14:06:43;26;24;
55276;PMS5003;41136;51.478;-2.610;2022-12-11T14:09:13;27;27;
55276;PMS5003;41136;51.478;-2.610;2022-12-11T14:11:35;23;22;
55276;PMS5003;41136;51.478;-2.610;2022-12-11T14:14:00;29;25;
55276;PMS5003;41136;51.478;-2.610;2022-12-11T14:16:25;27;25;
55276;PMS5003;41136;51.478;-2.610;2022-12-11T14:18:50;21;21;
55276;PMS5003;41136;51.478;-2.610;2022-12-11T14:21:15;29;24;
55276;PMS5003;41136;51.478;-2.610;2022-12-11T14:23:41;27;24;
55276;PMS5003;41136;51.478;-2.610;2022-12-11T14:28:35;24;22;
55276;PMS5003;41136;51.478;-2.610;2022-12-11T14:30:57;25;24;
55276;PMS5003;41136;51.478;-2.610;2022-12-11T14:33:23;26;22;
55276;PMS5003;41136;51.478;-2.610;2022-12-11T14:35:48;22;20;
55276;PMS5003;41136;51.478;-2.610;2022-12-11T14:38:14;28;26;
55276;PMS5003;41136;51.478;-2.610;2022-12-11T14:40:39;28;26;
55276;PMS5003;41136;51.478;-2.610;2022-12-11T14:43:06;24;21;
55276;PMS5003;41136;51.478;-2.610;2022-12-11T14:45:31;27;23;
55276;PMS5003;41136;51.478;-2.610;2022-12-11T14:47:54;32;28;
55276;PMS5003;41136;51.478;-2.610;2022-12-11T14:50:21;27;25;
55276;PMS5003;41136;51.478;-2.610;2022-12-11T14:52:45;34;31;
55276;PMS5003;41136;51.478;-2.610;2022-12-11T14:55:12;34;32;
55276;PMS5003;41136;51.478;-2.610;2022-12-11T14:57:36;27;26;
55276;PMS5003;41136;51.478;-2.610;2022-12-11T15:00:03;30;29;
55276;PMS5003;41136;51.478;-2.610;2022-12-11T15:02:28;29;22;
55276;PMS5003;41136;51.478;-2.610;2022-12-11T15:07:19;29;26;
55276;PMS5003;41136;51.478;-2.610;2022-12-11T15:09:45;30;28;
55276;PMS5003;41136;51.478;-2.610;2022-12-11T15:12:11;26;25;
55276;PMS5003;41136;51.478;-2.610;2022-12-11T15:14:39;32;27;
55276;PMS5003;41136;51.478;-2.610;2022-12-11T15:17:01;29;24;
55276;PMS5003;41136;51.478;-2.610;2022-12-11T15:19:27;22;19;
55276;PMS5003;41136;51.478;-2.610;2022-12-11T15:21:52;27;22;
55276;PMS5003;41136;51.478;-2.610;2022-12-11T15:24:21;25;23;
55276;PMS5003;41136;51.478;-2.610;2022-12-11T15:26:44;27;26;
55276;PMS5003;41136;51.478;-2.610;2022-12-11T15:31:34;24;21;
55276;PMS5003;41136;51.478;-2.610;2022-12-11T15:33:59;28;26;
55276;PMS5003;41136;51.478;-2.610;2022-12-11T15:36:29;24;20;
55276;PMS5003;41136;51.478;-2.610;2022-12-11T15:38:51;23;22;
55276;PMS5003;41136;51.478;-2.610;2022-12-11T15:41:17;25;24;
55276;PMS5003;41136;51.478;-2.610;2022-12-11T15:43:42;24;24;
55276;PMS5003;41136;51.478;-2.610;2022-12-11T15:46:08;26;22;
55276;PMS5003;41136;51.478;-2.610;2022-12-11T15:48:33;24;24;
55276;PMS5003;41136;51.478;-2.610;2022-12-11T15:50:59;25;24;
55276;PMS5003;41136;51.478;-2.610;2022-12-11T15:53:24;29;25;
55276;PMS5003;41136;51.478;-2.610;2022-12-11T15:55:50;26;23;
55276;PMS5003;41136;51.478;-2.610;2022-12-11T15:58:16;20;20;
55276;PMS5003;41136;51.478;-2.610;2022-12-11T16:00:41;27;25;
55276;PMS5003;41136;51.478;-2.610;2022-12-11T16:03:08;19;19;
55276;PMS5003;41136;51.478;-2.610;2022-12-11T16:05:32;25;23;
55276;PMS5003;41136;51.478;-2.610;2022-12-11T16:07:57;27;24;
55276;PMS5003;41136;51.478;-2.610;2022-12-11T16:10:23;22;20;
55276;PMS5003;41136;51.478;-2.610;2022-12-11T16:12:48;26;23;
55276;PMS5003;41136;51.478;-2.610;2022-12-11T16:15:13;26;22;
55276;PMS5003;41136;51.478;-2.610;2022-12-11T16:17:39;28;25;
55276;PMS5003;41136;51.478;-2.610;2022-12-11T16:20:05;30;25;
55276;PMS5003;41136;51.478;-2.610;2022-12-11T16:22:30;28;23;
55276;PMS5003;41136;51.478;-2.610;2022-12-11T16:24:56;27;24;
55276;PMS5003;41136;51.478;-2.610;2022-12-11T16:27:21;26;26;
55276;PMS5003;41136;51.478;-2.610;2022-12-11T16:29:47;23;20;
55276;PMS5003;41136;51.478;-2.610;2022-12-11T16:32:12;30;26;
55276;PMS5003;41136;51.478;-2.610;2022-12-11T16:34:38;30;26;
55276;PMS5003;41136;51.478;-2.610;2022-12-11T16:37:03;33;29;
55276;PMS5003;41136;51.478;-2.610;2022-12-11T16:39:28;30;27;
55276;PMS5003;41136;51.478;-2.610;2022-12-11T16:41:53;29;29;
55276;PMS5003;41136;51.478;-2.610;2022-12-11T16:44:20;27;24;
55276;PMS5003;41136;51.478;-2.610;2022-12-11T16:46:45;32;28;
55276;PMS5003;41136;51.478;-2.610;2022-12-11T16:49:10;27;27;
55276;PMS5003;41136;51.478;-2.610;2022-12-11T16:51:36;26;23;
55276;PMS5003;41136;51.478;-2.610;2022-12-11T16:54:01;28;28;
55276;PMS5003;41136;51.478;-2.610;2022-12-11T16:56:26;30;28;
55276;PMS5003;41136;51.478;-2.610;2022-12-11T16:58:51;31;27;
55276;PMS5003;41136;51.478;-2.610;2022-12-11T17:01:16;32;30;
55276;PMS5003;41136;51.478;-2.610;2022-12-11T17:03:42;26;26;
55276;PMS5003;41136;51.478;-2.610;2022-12-11T17:06:08;29;24;
55276;PMS5003;41136;51.478;-2.610;2022-12-11T17:08:32;32;28;
55276;PMS5003;41136;51.478;-2.610;2022-12-11T17:10:58;31;27;
55276;PMS5003;41136;51.478;-2.610;2022-12-11T17:13:23;30;26;
55276;PMS5003;41136;51.478;-2.610;2022-12-11T17:15:49;25;24;
55276;PMS5003;41136;51.478;-2.610;2022-12-11T17:18:14;29;24;
55276;PMS5003;41136;51.478;-2.610;2022-12-11T17:20:40;28;26;
55276;PMS5003;41136;51.478;-2.610;2022-12-11T17:23:05;23;19;
55276;PMS5003;41136;51.478;-2.610;2022-12-11T17:25:30;24;22;
55276;PMS5003;41136;51.478;-2.610;2022-12-11T17:27:56;29;28;
55276;PMS5003;41136;51.478;-2.610;2022-12-11T17:30:21;24;23;
55276;PMS5003;41136;51.478;-2.610;2022-12-11T17:32:48;24;22;
55276;PMS5003;41136;51.478;-2.610;2022-12-11T17:35:13;27;26;
55276;PMS5003;41136;51.478;-2.610;2022-12-11T17:37:38;27;24;
55276;PMS5003;41136;51.478;-2.610;2022-12-11T17:40:04;32;31;
55276;PMS5003;41136;51.478;-2.610;2022-12-11T17:42:29;36;34;
55276;PMS5003;41136;51.478;-2.610;2022-12-11T17:44:54;30;24;
55276;PMS5003;41136;51.478;-2.610;2022-12-11T17:47:20;34;30;
55276;PMS5003;41136;51.478;-2.610;2022-12-11T17:49:45;28;24;
55276;PMS5003;41136;51.478;-2.610;2022-12-11T17:52:10;27;24;
55276;PMS5003;41136;51.478;-2.610;2022-12-11T17:54:36;32;27;
55276;PMS5003;41136;51.478;-2.610;2022-12-11T17:57:01;31;28;
55276;PMS5003;41136;51.478;-2.610;2022-12-11T17:59:26;27;24;
55276;PMS5003;41136;51.478;-2.610;2022-12-11T18:01:51;27;24;
55276;PMS5003;41136;51.478;-2.610;2022-12-11T18:04:17;23;23;
55276;PMS5003;41136;51.478;-2.610;2022-12-11T18:06:43;27;26;
55276;PMS5003;41136;51.478;-2.610;2022-12-11T18:09:08;22;22;
55276;PMS5003;41136;51.478;-2.610;2022-12-11T18:11:33;31;26;
55276;PMS5003;41136;51.478;-2.610;2022-12-11T18:13:59;25;23;
55276;PMS5003;41136;51.478;-2.610;2022-12-11T18:16:26;23;22;
55276;PMS5003;41136;51.478;-2.610;2022-12-11T18:18:51;25;23;
55276;PMS5003;41136;51.478;-2.610;2022-12-11T18:21:19;28;22;
55276;PMS5003;41136;51.478;-2.610;2022-12-11T18:23:42;24;21;
55276;PMS5003;41136;51.478;-2.610;2022-12-11T18:26:08;26;24;
55276;PMS5003;41136;51.478;-2.610;2022-12-11T18:28:34;22;21;
55276;PMS5003;41136;51.478;-2.610;2022-12-11T18:30:59;26;24;
55276;PMS5003;41136;51.478;-2.610;2022-12-11T18:33:24;28;24;
55276;PMS5003;41136;51.478;-2.610;2022-12-11T18:35:50;23;20;
55276;PMS5003;41136;51.478;-2.610;2022-12-11T18:38:16;28;24;
55276;PMS5003;41136;51.478;-2.610;2022-12-11T18:40:41;23;21;
55276;PMS5003;41136;51.478;-2.610;2022-12-11T18:43:07;27;25;
55276;PMS5003;41136;51.478;-2.610;2022-12-11T18:45:32;28;27;
55276;PMS5003;41136;51.478;-2.610;2022-12-11T18:47:58;24;22;
55276;PMS5003;41136;51.478;-2.610;2022-12-11T18:50:23;26;25;
55276;PMS5003;41136;51.478;-2.610;2022-12-11T18:52:51;27;26;
55276;PMS5003;41136;51.478;-2.610;2022-12-11T18:55:14;25;22;
55276;PMS5003;41136;51.478;-2.610;2022-12-11T18:57:39;29;25;
55276;PMS5003;41136;51.478;-2.610;2022-12-11T19:00:05;29;25;
55276;PMS5003;41136;51.478;-2.610;2022-12-11T19:02:31;26;24;
55276;PMS5003;41136;51.478;-2.610;2022-12-11T19:04:56;24;22;
55276;PMS5003;41136;51.478;-2.610;2022-12-11T19:07:22;21;21;
55276;PMS5003;41136;51.478;-2.610;2022-12-11T19:09:48;24;22;
55276;PMS5003;41136;51.478;-2.610;2022-12-11T19:12:13;28;26;
55276;PMS5003;41136;51.478;-2.610;2022-12-11T19:14:39;29;22;
55276;PMS5003;41136;51.478;-2.610;2022-12-11T19:17:04;25;25;
55276;PMS5003;41136;51.478;-2.610;2022-12-11T19:19:29;25;23;
55276;PMS5003;41136;51.478;-2.610;2022-12-11T19:21:55;27;23;
55276;PMS5003;41136;51.478;-2.610;2022-12-11T19:24:21;26;25;
55276;PMS5003;41136;51.478;-2.610;2022-12-11T19:26:46;29;27;
55276;PMS5003;41136;51.478;-2.610;2022-12-11T19:29:13;22;20;
55276;PMS5003;41136;51.478;-2.610;2022-12-11T19:31:36;25;23;
55276;PMS5003;41136;51.478;-2.610;2022-12-11T19:34:07;24;22;
55276;PMS5003;41136;51.478;-2.610;2022-12-11T19:36:27;22;22;
55276;PMS5003;41136;51.478;-2.610;2022-12-11T19:38:53;26;24;
55276;PMS5003;41136;51.478;-2.610;2022-12-11T19:41:19;24;21;
55276;PMS5003;41136;51.478;-2.610;2022-12-11T19:43:43;23;21;
55276;PMS5003;41136;51.478;-2.610;2022-12-11T19:46:09;26;19;
55276;PMS5003;41136;51.478;-2.610;2022-12-11T19:48:35;22;19;
55276;PMS5003;41136;51.478;-2.610;2022-12-11T19:51:02;26;17;
55276;PMS5003;41136;51.478;-2.610;2022-12-11T19:53:26;28;25;
55276;PMS5003;41136;51.478;-2.610;2022-12-11T19:55:52;25;25;
55276;PMS5003;41136;51.478;-2.610;2022-12-11T19:58:17;30;27;
55276;PMS5003;41136;51.478;-2.610;2022-12-11T20:00:42;28;26;
55276;PMS5003;41136;51.478;-2.610;2022-12-11T20:03:08;35;31;
55276;PMS5003;41136;51.478;-2.610;2022-12-11T20:05:33;35;31;
55276;PMS5003;41136;51.478;-2.610;2022-12-11T20:07:58;30;27;
55276;PMS5003;41136;51.478;-2.610;2022-12-11T20:10:23;32;25;
55276;PMS5003;41136;51.478;-2.610;2022-12-11T20:12:49;37;33;
55276;PMS5003;41136;51.478;-2.610;2022-12-11T20:15:15;35;30;
55276;PMS5003;41136;51.478;-2.610;2022-12-11T20:17:40;30;25;
55276;PMS5003;41136;51.478;-2.610;2022-12-11T20:20:06;28;24;
55276;PMS5003;41136;51.478;-2.610;2022-12-11T20:22:31;35;30;
55276;PMS5003;41136;51.478;-2.610;2022-12-11T20:24:56;37;35;
55276;PMS5003;41136;51.478;-2.610;2022-12-11T20:27:22;41;38;
55276;PMS5003;41136;51.478;-2.610;2022-12-11T20:29:48;32;29;
55276;PMS5003;41136;51.478;-2.610;2022-12-11T20:32:13;40;34;
55276;PMS5003;41136;51.478;-2.610;2022-12-11T20:34:39;34;29;
55276;PMS5003;41136;51.478;-2.610;2022-12-11T20:37:04;38;32;
55276;PMS5003;41136;51.478;-2.610;2022-12-11T20:39:29;29;26;
55276;PMS5003;41136;51.478;-2.610;2022-12-11T20:41:55;45;37;
55276;PMS5003;41136;51.478;-2.610;2022-12-11T20:44:20;35;33;
55276;PMS5003;41136;51.478;-2.610;2022-12-11T20:46:46;36;31;
55276;PMS5003;41136;51.478;-2.610;2022-12-11T20:49:11;29;27;
55276;PMS5003;41136;51.478;-2.610;2022-12-11T20:51:37;33;31;
55276;PMS5003;41136;51.478;-2.610;2022-12-11T20:54:03;31;31;
55276;PMS5003;41136;51.478;-2.610;2022-12-11T20:56:28;38;34;
55276;PMS5003;41136;51.478;-2.610;2022-12-11T20:58:53;38;35;
55276;PMS5003;41136;51.478;-2.610;2022-12-11T21:01:20;37;34;
55276;PMS5003;41136;51.478;-2.610;2022-12-11T21:03:45;35;32;
55276;PMS5003;41136;51.478;-2.610;2022-12-11T21:08:35;37;31;
55276;PMS5003;41136;51.478;-2.610;2022-12-11T21:11:00;27;27;
55276;PMS5003;41136;51.478;-2.610;2022-12-11T21:13:26;47;37;
55276;PMS5003;41136;51.478;-2.610;2022-12-11T21:15:51;39;37;
55276;PMS5003;41136;51.478;-2.610;2022-12-11T21:18:17;37;34;
55276;PMS5003;41136;51.478;-2.610;2022-12-11T21:20:42;34;30;
55276;PMS5003;41136;51.478;-2.610;2022-12-11T21:23:08;37;31;
55276;PMS5003;41136;51.478;-2.610;2022-12-11T21:25:36;47;39;
55276;PMS5003;41136;51.478;-2.610;2022-12-11T21:28:00;39;36;
55276;PMS5003;41136;51.478;-2.610;2022-12-11T21:30:25;40;33;
55276;PMS5003;41136;51.478;-2.610;2022-12-11T21:32:50;49;34;
55276;PMS5003;41136;51.478;-2.610;2022-12-11T21:35:16;35;35;
55276;PMS5003;41136;51.478;-2.610;2022-12-11T21:37:41;41;34;
55276;PMS5003;41136;51.478;-2.610;2022-12-11T21:40:07;43;33;
55276;PMS5003;41136;51.478;-2.610;2022-12-11T21:42:31;40;35;
55276;PMS5003;41136;51.478;-2.610;2022-12-11T21:44:57;44;37;
55276;PMS5003;41136;51.478;-2.610;2022-12-11T21:47:22;38;34;
55276;PMS5003;41136;51.478;-2.610;2022-12-11T21:49:48;42;36;
55276;PMS5003;41136;51.478;-2.610;2022-12-11T21:52:13;44;38;
55276;PMS5003;41136;51.478;-2.610;2022-12-11T21:54:39;39;34;
55276;PMS5003;41136;51.478;-2.610;2022-12-11T21:57:04;38;34;
55276;PMS5003;41136;51.478;-2.610;2022-12-11T21:59:29;39;36;
55276;PMS5003;41136;51.478;-2.610;2022-12-11T22:01:55;42;36;
55276;PMS5003;41136;51.478;-2.610;2022-12-11T22:04:20;36;31;
55276;PMS5003;41136;51.478;-2.610;2022-12-11T22:06:46;45;35;
55276;PMS5003;41136;51.478;-2.610;2022-12-11T22:09:11;41;37;
55276;PMS5003;41136;51.478;-2.610;2022-12-11T22:11:36;40;37;
55276;PMS5003;41136;51.478;-2.610;2022-12-11T22:14:01;37;35;
55276;PMS5003;41136;51.478;-2.610;2022-12-11T22:16:27;31;31;
55276;PMS5003;41136;51.478;-2.610;2022-12-11T22:18:52;44;36;
55276;PMS5003;41136;51.478;-2.610;2022-12-11T22:21:18;39;36;
55276;PMS5003;41136;51.478;-2.610;2022-12-11T22:23:43;40;33;
55276;PMS5003;41136;51.478;-2.610;2022-12-11T22:26:10;41;34;
55276;PMS5003;41136;51.478;-2.610;2022-12-11T22:28:34;34;33;
55276;PMS5003;41136;51.478;-2.610;2022-12-11T22:30:59;35;32;
55276;PMS5003;41136;51.478;-2.610;2022-12-11T22:33:25;36;33;
55276;PMS5003;41136;51.478;-2.610;2022-12-11T22:35:54;36;35;
55276;PMS5003;41136;51.478;-2.610;2022-12-11T22:38:16;42;35;
55276;PMS5003;41136;51.478;-2.610;2022-12-11T22:40:42;32;32;
55276;PMS5003;41136;51.478;-2.610;2022-12-11T22:43:07;39;35;
55276;PMS5003;41136;51.478;-2.610;2022-12-11T22:45:36;37;33;
55276;PMS5003;41136;51.478;-2.610;2022-12-11T22:47:58;40;36;
55276;PMS5003;41136;51.478;-2.610;2022-12-11T22:50:23;39;38;
55276;PMS5003;41136;51.478;-2.610;2022-12-11T22:52:49;39;35;
55276;PMS5003;41136;51.478;-2.610;2022-12-11T22:55:14;38;33;
55276;PMS5003;41136;51.478;-2.610;2022-12-11T22:57:40;39;35;
55276;PMS5003;41136;51.478;-2.610;2022-12-11T23:00:07;39;35;
55276;PMS5003;41136;51.478;-2.610;2022-12-11T23:02:31;48;39;
55276;PMS5003;41136;51.478;-2.610;2022-12-11T23:04:56;40;37;
55276;PMS5003;41136;51.478;-2.610;2022-12-11T23:07:22;40;37;
55276;PMS5003;41136;51.478;-2.610;2022-12-11T23:09:47;37;35;
55276;PMS5003;41136;51.478;-2.610;2022-12-11T23:12:12;35;31;
55276;PMS5003;41136;51.478;-2.610;2022-12-11T23:14:37;28;28;
55276;PMS5003;41136;51.478;-2.610;2022-12-11T23:17:03;30;27;
55276;PMS5003;41136;51.478;-2.610;2022-12-11T23:19:28;33;31;
55276;PMS5003;41136;51.478;-2.610;2022-12-11T23:21:53;27;25;
55276;PMS5003;41136;51.478;-2.610;2022-12-11T23:24:18;30;27;
55276;PMS5003;41136;51.478;-2.610;2022-12-11T23:26:44;28;27;
55276;PMS5003;41136;51.478;-2.610;2022-12-11T23:29:09;19;18;
55276;PMS5003;41136;51.478;-2.610;2022-12-11T23:31:35;28;24;
55276;PMS5003;41136;51.478;-2.610;2022-12-11T23:34:01;28;24;
55276;PMS5003;41136;51.478;-2.610;2022-12-11T23:36:27;20;18;
55276;PMS5003;41136;51.478;-2.610;2022-12-11T23:38:52;25;22;
55276;PMS5003;41136;51.478;-2.610;2022-12-11T23:41:18;28;23;
55276;PMS5003;41136;51.478;-2.610;2022-12-11T23:43:43;24;20;
55276;PMS5003;41136;51.478;-2.610;2022-12-11T23:46:10;19;18;
55276;PMS5003;41136;51.478;-2.610;2022-12-11T23:48:34;24;21;
55276;PMS5003;41136;51.478;-2.610;2022-12-11T23:51:00;22;21;
55276;PMS5003;41136;51.478;-2.610;2022-12-11T23:53:26;24;23;
55276;PMS5003;41136;51.478;-2.610;2022-12-11T23:55:51;28;23;
55276;PMS5003;41136;51.478;-2.610;2022-12-11T23:58:16;21;20;
